Time;durP1;ratioP1;P1;durP2;ratioP2;P2;SDS_P1;SDS_P2;PMS_P1;PMS_P2;Temp;Humidity;BMP_temperature;BMP_pressure;BME280_temperature;BME280_humidity;BME280_pressure;Samples;Min_cycle;Max_cycle;Signal;HPM_P1;HPM_P2
2023/11/26 00:00:05;;;;;;;2.75;1.60;;;;;5.10;98279.00;;;;4917870;29;20044;-65
2023/11/26 00:02:33;;;;;;;2.35;1.83;;;;;5.20;98282.00;;;;4917719;29;20046;-64
2023/11/26 00:04:59;;;;;;;5.50;2.22;;;;;5.20;98291.00;;;;4917596;29;20044;-64
2023/11/26 00:07:26;;;;;;;4.95;2.45;;;;;5.20;98273.00;;;;4916962;29;20469;-64
2023/11/26 00:09:53;;;;;;;3.20;2.17;;;;;5.20;98299.00;;;;4918380;29;20048;-65
2023/11/26 00:12:20;;;;;;;4.25;2.30;;;;;5.10;98287.00;;;;4917620;29;20052;-62
2023/11/26 00:14:47;;;;;;;4.35;2.72;;;;;5.10;98289.00;;;;4916921;29;20055;-62
2023/11/26 00:17:14;;;;;;;4.15;3.08;;;;;5.00;98290.00;;;;4917458;29;20048;-64
2023/11/26 00:19:40;;;;;;;5.18;2.33;;;;;5.00;98281.00;;;;4916140;29;20052;-62
2023/11/26 00:22:07;;;;;;;3.80;2.33;;;;;5.00;98289.00;;;;4915994;29;20131;-62
2023/11/26 00:24:34;;;;;;;6.13;2.40;;;;;5.10;98287.00;;;;4916109;29;20148;-63
2023/11/26 00:27:00;;;;;;;5.00;3.00;;;;;5.10;98295.00;;;;4915877;29;20139;-62
2023/11/26 00:29:27;;;;;;;5.60;2.40;;;;;5.10;98301.00;;;;4917037;29;20127;-62
2023/11/26 00:31:54;;;;;;;3.35;2.63;;;;;5.10;98295.00;;;;4917025;29;20172;-64
2023/11/26 00:34:21;;;;;;;2.30;2.00;;;;;5.00;98299.00;;;;4915365;29;20570;-63
2023/11/26 00:36:48;;;;;;;3.05;2.10;;;;;5.00;98291.00;;;;4916948;29;20040;-63
2023/11/26 00:39:16;;;;;;;5.25;2.08;;;;;5.00;98294.00;;;;4915633;29;20058;-63
2023/11/26 00:41:44;;;;;;;3.47;1.98;;;;;5.00;98294.00;;;;4916696;29;20482;-62
2023/11/26 00:44:11;;;;;;;3.53;1.98;;;;;5.00;98304.00;;;;4915161;29;20060;-62
2023/11/26 00:46:37;;;;;;;5.32;2.35;;;;;5.00;98307.00;;;;4916847;29;20135;-62
2023/11/26 00:49:06;;;;;;;6.93;2.45;;;;;5.00;98316.00;;;;4916786;29;20076;-61
2023/11/26 00:51:32;;;;;;;4.68;2.17;;;;;4.90;98311.00;;;;4915597;29;20044;-63
2023/11/26 00:53:59;;;;;;;3.78;1.95;;;;;4.90;98315.00;;;;4915080;29;20088;-62
2023/11/26 00:56:26;;;;;;;8.02;2.40;;;;;4.90;98309.00;;;;4899641;29;20078;-62
2023/11/26 00:58:54;;;;;;;3.38;2.40;;;;;4.90;98317.00;;;;4915474;29;20134;-62
2023/11/26 01:01:20;;;;;;;7.25;2.42;;;;;4.90;98312.00;;;;4915343;29;20058;-62
2023/11/26 01:03:47;;;;;;;5.57;2.85;;;;;4.90;98316.00;;;;4915972;29;20055;-62
2023/11/26 01:06:13;;;;;;;4.40;2.78;;;;;4.90;98324.00;;;;4915052;29;20137;-62
2023/11/26 01:08:40;;;;;;;3.50;2.28;;;;;4.90;98332.00;;;;4916458;29;20103;-61
2023/11/26 01:11:14;;;;;;;8.70;2.42;;;;;4.90;98326.00;;;;4916530;29;20176;-62
2023/11/26 01:13:41;;;;;;;5.45;2.78;;;;;4.80;98331.00;;;;4915868;29;20051;-62
2023/11/26 01:16:09;;;;;;;4.03;2.28;;;;;4.80;98324.00;;;;4899312;29;20175;-63
2023/11/26 01:18:38;;;;;;;5.53;2.38;;;;;4.80;98333.00;;;;4915223;29;20192;-62
2023/11/26 01:21:06;;;;;;;4.30;2.63;;;;;4.90;98342.00;;;;4931074;29;20056;-64
2023/11/26 01:23:33;;;;;;;8.32;2.60;;;;;5.00;98342.00;;;;4914618;29;20044;-63
2023/11/26 01:25:59;;;;;;;5.63;2.38;;;;;5.10;98335.00;;;;4914851;29;20144;-63
2023/11/26 01:28:26;;;;;;;5.10;3.10;;;;;5.10;98350.00;;;;4914836;29;20100;-61
2023/11/26 01:30:53;;;;;;;4.18;2.20;;;;;5.10;98351.00;;;;4915329;29;20143;-64
2023/11/26 01:33:20;;;;;;;6.03;2.03;;;;;5.10;98341.00;;;;4915167;29;20394;-62
2023/11/26 01:35:47;;;;;;;3.63;2.42;;;;;5.10;98347.00;;;;4929736;29;20036;-63
2023/11/26 01:38:13;;;;;;;4.20;2.70;;;;;5.10;98345.00;;;;4914788;29;20143;-63
2023/11/26 01:40:41;;;;;;;3.03;2.10;;;;;5.10;98350.00;;;;4915989;29;20047;-61
2023/11/26 01:43:07;;;;;;;5.90;2.95;;;;;5.10;98341.00;;;;4914746;29;20048;-61
2023/11/26 01:45:34;;;;;;;11.70;7.50;;;;;5.10;98349.00;;;;4914200;29;20118;-64
2023/11/26 01:48:01;;;;;;;9.07;5.72;;;;;5.10;98344.00;;;;4916071;29;20052;-61
2023/11/26 01:50:29;;;;;;;5.53;3.03;;;;;5.10;98345.00;;;;4930737;29;20135;-63
2023/11/26 01:52:56;;;;;;;6.88;2.60;;;;;5.20;98347.00;;;;4914987;29;20056;-60
2023/11/26 01:55:23;;;;;;;4.60;2.58;;;;;5.30;98356.00;;;;4915303;29;20044;-61
2023/11/26 01:57:50;;;;;;;4.10;2.70;;;;;5.30;98351.00;;;;4915061;29;20087;-61
2023/11/26 02:00:20;;;;;;;3.35;2.75;;;;;5.30;98351.00;;;;4899241;29;20509;-61
2023/11/26 02:02:47;;;;;;;5.28;2.30;;;;;5.30;98350.00;;;;4914848;29;20052;-61
2023/11/26 02:05:14;;;;;;;5.05;2.42;;;;;5.30;98350.00;;;;4914124;29;20045;-62
2023/11/26 02:07:42;;;;;;;2.63;2.10;;;;;5.10;98339.00;;;;4914374;29;20044;-62
2023/11/26 02:10:09;;;;;;;3.70;2.55;;;;;5.00;98344.00;;;;4915669;29;20044;-62
2023/11/26 02:12:36;;;;;;;6.85;2.50;;;;;5.10;98348.00;;;;4914804;29;20400;-62
2023/11/26 02:15:04;;;;;;;3.58;2.42;;;;;5.00;98345.00;;;;4915014;29;20044;-62
2023/11/26 02:17:32;;;;;;;2.72;2.10;;;;;5.00;98352.00;;;;4914646;29;20143;-61
2023/11/26 02:20:03;;;;;;;2.50;1.90;;;;;5.10;98353.00;;;;4915927;29;20263;-65
2023/11/26 02:22:33;;;;;;;3.40;2.13;;;;;5.10;98360.00;;;;4914657;29;20052;-62
2023/11/26 02:25:00;;;;;;;2.25;1.75;;;;;5.10;98363.00;;;;4913757;29;20090;-62
2023/11/26 02:27:26;;;;;;;2.53;1.65;;;;;5.10;98360.00;;;;4915618;29;20127;-62
2023/11/26 02:29:53;;;;;;;3.13;1.60;;;;;5.10;98365.00;;;;4915949;29;20548;-64
2023/11/26 02:32:21;;;;;;;2.63;1.50;;;;;5.10;98361.00;;;;4915969;29;20044;-63
2023/11/26 02:34:47;;;;;;;1.50;1.40;;;;;5.10;98365.00;;;;4914789;29;20135;-65
2023/11/26 02:37:14;;;;;;;2.33;1.50;;;;;5.20;98370.00;;;;4915281;29;20104;-63
2023/11/26 02:39:41;;;;;;;1.50;1.20;;;;;5.20;98371.00;;;;4898575;29;20052;-63
2023/11/26 02:42:07;;;;;;;1.50;1.35;;;;;5.20;98376.00;;;;4915457;29;20055;-64
2023/11/26 02:44:34;;;;;;;1.42;1.27;;;;;5.30;98365.00;;;;4913666;29;20395;-63
2023/11/26 02:47:01;;;;;;;3.10;1.40;;;;;5.30;98369.00;;;;4914838;29;20054;-63
2023/11/26 02:49:27;;;;;;;1.90;1.55;;;;;5.20;98370.00;;;;4918824;29;20481;-64
2023/11/26 02:51:54;;;;;;;1.50;1.30;;;;;5.20;98364.00;;;;4918622;29;20075;-64
2023/11/26 02:54:21;;;;;;;1.83;1.50;;;;;5.10;98360.00;;;;4918223;29;20044;-63
2023/11/26 02:56:47;;;;;;;1.38;1.27;;;;;5.00;98359.00;;;;4917468;29;20103;-61
2023/11/26 02:59:14;;;;;;;2.85;1.60;;;;;5.00;98359.00;;;;4917408;29;20056;-64
2023/11/26 03:01:44;;;;;;;1.52;1.27;;;;;5.00;98359.00;;;;4917512;29;20108;-60
2023/11/26 03:04:11;;;;;;;2.75;1.67;;;;;5.00;98359.00;;;;4916539;29;20100;-61
2023/11/26 03:06:39;;;;;;;2.13;1.30;;;;;4.90;98360.00;;;;4917061;29;20068;-61
2023/11/26 03:09:29;;;;;;;1.30;1.20;;;;;4.90;98364.00;;;;4917466;29;20482;-60
2023/11/26 03:14:41;;;;;;;4.72;1.75;;;;;4.90;98360.00;;;;4916515;29;20071;-61
2023/11/26 03:17:08;;;;;;;4.15;1.95;;;;;4.90;98364.00;;;;4917281;29;20066;-60
2023/11/26 03:19:35;;;;;;;2.97;1.70;;;;;4.90;98363.00;;;;4901511;29;20048;-61
2023/11/26 03:22:07;;;;;;;2.65;1.90;;;;;4.90;98365.00;;;;4918207;29;20218;-60
2023/11/26 03:24:34;;;;;;;1.80;1.70;;;;;5.00;98366.00;;;;4917560;29;20130;-61
2023/11/26 03:27:00;;;;;;;2.58;1.90;;;;;5.00;98368.00;;;;4917000;29;20080;-61
2023/11/26 03:29:27;;;;;;;2.63;2.00;;;;;5.00;98375.00;;;;4918134;29;20037;-62
2023/11/26 03:31:53;;;;;;;4.22;2.03;;;;;5.00;98378.00;;;;4916881;29;20056;-61
2023/11/26 03:34:23;;;;;;;2.22;2.03;;;;;5.00;98381.00;;;;4916378;29;20044;-61
2023/11/26 03:36:49;;;;;;;2.10;1.90;;;;;4.90;98374.00;;;;4916770;29;20059;-60
2023/11/26 03:39:18;;;;;;;3.53;2.20;;;;;5.00;98382.00;;;;4918041;29;20139;-61
2023/11/26 03:41:45;;;;;;;3.67;2.17;;;;;5.00;98383.00;;;;4917943;29;20044;-60
2023/11/26 03:44:11;;;;;;;4.80;2.50;;;;;5.00;98380.00;;;;4917288;29;20130;-62
2023/11/26 03:46:38;;;;;;;4.00;2.35;;;;;5.00;98379.00;;;;4916538;29;20135;-62
2023/11/26 03:49:06;;;;;;;3.20;2.22;;;;;4.90;98382.00;;;;4916592;29;20056;-61
2023/11/26 03:51:33;;;;;;;3.85;3.05;;;;;4.90;98385.00;;;;4916365;29;20458;-61
2023/11/26 03:54:00;;;;;;;5.45;3.22;;;;;4.80;98396.00;;;;4917207;29;20052;-60
2023/11/26 03:56:27;;;;;;;3.35;2.33;;;;;4.80;98383.00;;;;4932137;29;20079;-62
2023/11/26 03:58:53;;;;;;;6.70;2.63;;;;;4.80;98388.00;;;;4915697;29;20059;-61
2023/11/26 04:01:20;;;;;;;5.72;2.45;;;;;4.80;98384.00;;;;4932198;29;20494;-61
2023/11/26 04:03:47;;;;;;;4.43;2.28;;;;;4.80;98386.00;;;;4916981;29;20104;-59
2023/11/26 04:06:13;;;;;;;4.85;2.65;;;;;4.80;98384.00;;;;4931968;29;20486;-62
2023/11/26 04:08:40;;;;;;;3.88;2.83;;;;;4.80;98384.00;;;;4917399;29;20130;-63
2023/11/26 04:11:07;;;;;;;3.85;2.60;;;;;4.80;98381.00;;;;4916091;29;20060;-61
2023/11/26 04:13:35;;;;;;;4.75;2.58;;;;;4.80;98380.00;;;;4916802;29;20048;-62
2023/11/26 04:16:04;;;;;;;3.35;2.92;;;;;4.70;98380.00;;;;4917337;29;20040;-62
2023/11/26 04:18:33;;;;;;;5.80;3.08;;;;;4.50;98379.00;;;;4932061;29;20119;-61
2023/11/26 04:21:00;;;;;;;2.97;2.60;;;;;4.40;98377.00;;;;4917696;29;20467;-64
2023/11/26 04:23:27;;;;;;;7.15;3.95;;;;;4.40;98383.00;;;;4917072;29;20409;-62
2023/11/26 04:25:53;;;;;;;4.95;2.55;;;;;4.40;98384.00;;;;4917103;29;20064;-61
2023/11/26 04:28:20;;;;;;;3.65;2.33;;;;;4.50;98380.00;;;;4915906;29;20067;-61
2023/11/26 04:30:47;;;;;;;5.65;2.75;;;;;4.50;98386.00;;;;4931627;29;20139;-62
2023/11/26 04:33:13;;;;;;;3.55;2.53;;;;;4.60;98384.00;;;;4916008;29;20073;-61
2023/11/26 04:35:41;;;;;;;6.00;2.85;;;;;4.60;98378.00;;;;4915092;29;20076;-60
2023/11/26 04:38:08;;;;;;;3.75;2.60;;;;;4.60;98384.00;;;;4915734;29;20149;-61
2023/11/26 04:40:35;;;;;;;3.10;2.53;;;;;4.50;98387.00;;;;4917038;29;20543;-60
2023/11/26 04:43:01;;;;;;;5.35;3.03;;;;;4.50;98388.00;;;;4916878;29;20123;-61
2023/11/26 04:45:28;;;;;;;6.18;3.08;;;;;4.40;98384.00;;;;4916073;29;20070;-60
2023/11/26 04:47:54;;;;;;;3.53;2.78;;;;;4.40;98396.00;;;;4915569;29;20520;-60
2023/11/26 04:50:21;;;;;;;6.15;3.42;;;;;4.40;98396.00;;;;4915371;29;20135;-62
2023/11/26 04:52:47;;;;;;;6.43;3.08;;;;;4.40;98400.00;;;;4916477;29;20049;-61
2023/11/26 04:55:19;;;;;;;7.32;3.65;;;;;4.20;98399.00;;;;4915922;29;20052;-61
2023/11/26 04:57:49;;;;;;;5.70;3.50;;;;;4.00;98404.00;;;;4916516;29;20048;-62
2023/11/26 05:00:16;;;;;;;7.90;3.92;;;;;3.80;98402.00;;;;4916825;29;20045;-61
2023/11/26 05:02:43;;;;;;;6.20;3.88;;;;;3.80;98398.00;;;;4916531;29;20050;-60
2023/11/26 05:05:10;;;;;;;8.50;4.35;;;;;3.80;98395.00;;;;4915431;29;20058;-62
2023/11/26 05:07:37;;;;;;;6.68;4.10;;;;;4.00;98407.00;;;;4914887;29;20396;-61
2023/11/26 05:10:07;;;;;;;7.22;3.70;;;;;4.10;98414.00;;;;4916352;29;20474;-61
2023/11/26 05:12:34;;;;;;;9.75;4.50;;;;;4.20;98418.00;;;;4916315;29;20056;-60
2023/11/26 05:15:02;;;;;;;7.13;4.20;;;;;4.20;98422.00;;;;4915835;29;20383;-61
2023/11/26 05:17:28;;;;;;;5.72;3.45;;;;;4.30;98418.00;;;;4914970;29;20047;-61
2023/11/26 05:19:55;;;;;;;5.28;3.55;;;;;4.30;98426.00;;;;4930739;29;20520;-61
2023/11/26 05:22:22;;;;;;;5.43;3.80;;;;;4.30;98423.00;;;;4916100;29;20630;-60
2023/11/26 05:24:49;;;;;;;7.03;4.45;;;;;4.30;98428.00;;;;4915536;29;20048;-62
2023/11/26 05:27:15;;;;;;;9.60;4.85;;;;;4.20;98432.00;;;;4914844;29;20044;-61
2023/11/26 05:29:42;;;;;;;6.95;4.25;;;;;4.20;98432.00;;;;4916260;29;20043;-61
2023/11/26 05:32:08;;;;;;;8.52;4.90;;;;;4.20;98432.00;;;;4915899;29;20044;-62
2023/11/26 05:34:36;;;;;;;9.38;4.68;;;;;4.20;98430.00;;;;4915296;29;20115;-62
2023/11/26 05:37:03;;;;;;;5.82;3.67;;;;;4.30;98428.00;;;;4914861;29;20487;-63
2023/11/26 05:39:30;;;;;;;9.52;4.82;;;;;4.30;98430.00;;;;4914689;29;20052;-62
2023/11/26 05:41:56;;;;;;;6.90;4.03;;;;;4.40;98440.00;;;;4915908;29;20064;-63
2023/11/26 05:44:23;;;;;;;6.88;3.97;;;;;4.40;98439.00;;;;4914029;29;20107;-62
2023/11/26 05:46:50;;;;;;;8.02;4.47;;;;;4.40;98440.00;;;;4915812;29;20091;-61
2023/11/26 05:49:16;;;;;;;8.32;3.78;;;;;4.40;98437.00;;;;4915868;29;20451;-64
2023/11/26 05:51:43;;;;;;;6.00;4.28;;;;;4.40;98434.00;;;;4915714;29;20131;-61
2023/11/26 05:54:10;;;;;;;10.68;4.70;;;;;4.40;98434.00;;;;4913966;29;20054;-62
2023/11/26 05:56:36;;;;;;;7.88;4.50;;;;;4.40;98442.00;;;;4915726;29;20047;-62
2023/11/26 05:59:03;;;;;;;9.30;4.40;;;;;4.40;98432.00;;;;4915795;29;20056;-62
2023/11/26 06:01:29;;;;;;;9.95;4.70;;;;;4.40;98445.00;;;;4915607;29;20056;-62
2023/11/26 06:03:56;;;;;;;7.65;5.20;;;;;4.40;98446.00;;;;4913859;29;20454;-61
2023/11/26 06:06:23;;;;;;;8.63;5.28;;;;;4.30;98446.00;;;;4914244;29;20040;-62
2023/11/26 06:08:50;;;;;;;8.98;5.43;;;;;4.20;98447.00;;;;4915598;29;20048;-62
2023/11/26 06:11:17;;;;;;;10.63;6.28;;;;;4.30;98449.00;;;;4915626;29;20096;-62
2023/11/26 06:13:44;;;;;;;10.38;5.93;;;;;4.30;98455.00;;;;4915102;29;21065;-61
2023/11/26 06:16:10;;;;;;;7.75;5.30;;;;;4.30;98461.00;;;;4915467;29;20375;-62
2023/11/26 06:18:38;;;;;;;6.85;5.07;;;;;4.20;98458.00;;;;4915628;29;20046;-61
2023/11/26 06:21:04;;;;;;;8.40;5.20;;;;;4.20;98470.00;;;;4914280;29;20048;-62
2023/11/26 06:23:31;;;;;;;11.35;4.85;;;;;4.20;98457.00;;;;4918588;29;20454;-62
2023/11/26 06:25:58;;;;;;;11.10;5.03;;;;;4.30;98467.00;;;;4918149;29;20461;-63
2023/11/26 06:28:25;;;;;;;8.20;4.72;;;;;4.30;98463.00;;;;4917967;29;20430;-62
2023/11/26 06:30:52;;;;;;;6.47;4.20;;;;;4.30;98471.00;;;;4918136;29;20072;-63
2023/11/26 06:33:18;;;;;;;8.77;4.80;;;;;4.30;98471.00;;;;4917949;29;20478;-62
2023/11/26 06:35:45;;;;;;;7.57;5.25;;;;;4.30;98471.00;;;;4917626;29;20056;-62
2023/11/26 06:38:12;;;;;;;10.20;6.47;;;;;4.30;98470.00;;;;4917974;29;20056;-62
2023/11/26 06:40:39;;;;;;;12.30;7.25;;;;;4.40;98475.00;;;;4919079;29;20123;-61
2023/11/26 06:43:05;;;;;;;11.43;7.10;;;;;4.40;98475.00;;;;4919000;29;20076;-61
2023/11/26 06:45:33;;;;;;;10.50;6.05;;;;;4.30;98474.00;;;;4918407;29;20044;-61
2023/11/26 06:48:01;;;;;;;11.55;6.20;;;;;4.40;98471.00;;;;4917646;29;20056;-61
2023/11/26 06:50:28;;;;;;;8.88;5.47;;;;;4.40;98468.00;;;;4917878;29;20067;-61
2023/11/26 06:52:54;;;;;;;9.32;4.40;;;;;4.30;98470.00;;;;4918897;29;20079;-63
2023/11/26 06:55:21;;;;;;;13.20;5.32;;;;;4.40;98466.00;;;;4917060;29;20138;-62
2023/11/26 06:57:47;;;;;;;13.05;5.18;;;;;4.40;98466.00;;;;4919000;29;20059;-62
2023/11/26 07:00:14;;;;;;;11.13;5.90;;;;;4.40;98470.00;;;;4917609;29;20058;-61
2023/11/26 07:02:41;;;;;;;11.27;6.43;;;;;4.50;98472.00;;;;4918654;29;20079;-61
2023/11/26 07:05:08;;;;;;;9.10;4.68;;;;;4.50;98486.00;;;;4918271;29;20072;-61
2023/11/26 07:07:35;;;;;;;11.07;5.22;;;;;4.30;98489.00;;;;4918485;29;20044;-62
2023/11/26 07:10:02;;;;;;;8.80;4.90;;;;;4.10;98483.00;;;;4918742;29;20048;-62
2023/11/26 07:12:29;;;;;;;10.50;4.80;;;;;4.00;98486.00;;;;4918722;29;20134;-62
2023/11/26 07:14:56;;;;;;;11.52;5.45;;;;;3.90;98486.00;;;;4916731;29;20075;-61
2023/11/26 07:17:25;;;;;;;7.13;5.13;;;;;4.00;98488.00;;;;4918671;29;20127;-61
2023/11/26 07:19:52;;;;;;;9.20;5.10;;;;;3.90;98498.00;;;;4918484;29;20051;-62
2023/11/26 07:22:20;;;;;;;7.57;5.03;;;;;3.90;98504.00;;;;4918558;29;20417;-61
2023/11/26 07:24:48;;;;;;;14.52;6.38;;;;;3.90;98502.00;;;;4917620;29;20127;-62
2023/11/26 07:27:15;;;;;;;13.77;7.03;;;;;3.90;98509.00;;;;4932706;29;20124;-61
2023/11/26 07:29:42;;;;;;;9.85;5.97;;;;;3.90;98507.00;;;;4916878;29;20111;-62
2023/11/26 07:32:08;;;;;;;10.85;5.85;;;;;4.00;98504.00;;;;4917279;29;20055;-62
2023/11/26 07:34:35;;;;;;;12.98;5.25;;;;;4.10;98503.00;;;;4916257;29;20104;-61
2023/11/26 07:37:02;;;;;;;7.90;4.97;;;;;4.20;98510.00;;;;4916728;29;20048;-62
2023/11/26 07:39:31;;;;;;;12.63;5.63;;;;;4.30;98510.00;;;;4918376;29;20054;-61
2023/11/26 07:41:58;;;;;;;10.20;6.45;;;;;4.30;98513.00;;;;4918214;29;20040;-63
2023/11/26 07:44:25;;;;;;;9.02;5.10;;;;;4.40;98507.00;;;;4917586;29;20055;-61
2023/11/26 07:46:52;;;;;;;9.55;4.30;;;;;4.60;98513.00;;;;4918000;29;20124;-63
2023/11/26 07:49:18;;;;;;;8.70;4.93;;;;;4.70;98511.00;;;;4917915;29;20103;-62
2023/11/26 07:51:49;;;;;;;9.88;5.47;;;;;4.80;98511.00;;;;4916595;29;20052;-62
2023/11/26 07:54:16;;;;;;;9.45;4.55;;;;;4.90;98512.00;;;;4915923;29;20066;-61
2023/11/26 07:56:51;;;;;;;9.00;4.75;;;;;5.00;98518.00;;;;4916734;29;20131;-62
2023/11/26 07:59:18;;;;;;;9.23;5.05;;;;;5.10;98506.00;;;;4917723;29;20044;-61
2023/11/26 08:01:49;;;;;;;9.57;5.30;;;;;5.10;98513.00;;;;4917685;29;20052;-63
2023/11/26 08:04:17;;;;;;;10.05;4.20;;;;;5.20;98512.00;;;;4915805;29;20055;-63
2023/11/26 08:06:52;;;;;;;9.02;4.95;;;;;5.30;98507.00;;;;4916011;29;20498;-62
2023/11/26 08:09:18;;;;;;;10.82;5.30;;;;;5.40;98512.00;;;;4916246;29;20098;-64
2023/11/26 08:11:46;;;;;;;7.55;4.85;;;;;5.50;98511.00;;;;4917440;29;20123;-62
2023/11/26 08:14:14;;;;;;;11.30;4.88;;;;;5.60;98509.00;;;;4915639;29;20119;-62
2023/11/26 08:16:42;;;;;;;8.80;5.10;;;;;5.70;98500.00;;;;4916108;29;20126;-64
2023/11/26 08:19:18;;;;;;;8.15;5.45;;;;;5.70;98512.00;;;;4917434;29;20119;-61
2023/11/26 08:21:45;;;;;;;10.35;5.10;;;;;5.80;98504.00;;;;4917384;29;20096;-64
2023/11/26 08:24:17;;;;;;;10.52;5.35;;;;;5.80;98508.00;;;;4916729;29;20074;-62
2023/11/26 08:26:46;;;;;;;11.90;6.13;;;;;5.90;98513.00;;;;4917088;29;20048;-61
2023/11/26 08:29:16;;;;;;;11.73;7.22;;;;;5.90;98515.00;;;;4915812;29;20126;-61
2023/11/26 08:31:42;;;;;;;7.85;5.75;;;;;6.00;98530.00;;;;4916155;29;20054;-62
2023/11/26 08:34:10;;;;;;;10.60;6.25;;;;;6.10;98529.00;;;;4916636;29;20521;-64
2023/11/26 08:36:43;;;;;;;10.00;5.68;;;;;6.20;98529.00;;;;4917099;29;20045;-61
2023/11/26 08:39:18;;;;;;;14.18;6.55;;;;;6.20;98536.00;;;;4915857;29;20044;-62
2023/11/26 08:41:46;;;;;;;10.35;6.05;;;;;6.30;98536.00;;;;4917191;29;20056;-61
2023/11/26 08:44:12;;;;;;;14.05;7.45;;;;;6.30;98534.00;;;;4916560;29;20075;-61
2023/11/26 08:46:41;;;;;;;12.65;7.25;;;;;6.40;98534.00;;;;4916604;29;20044;-62
2023/11/26 08:49:08;;;;;;;11.18;6.53;;;;;6.30;98541.00;;;;4917107;29;20055;-62
2023/11/26 08:51:40;;;;;;;11.27;7.70;;;;;6.30;98549.00;;;;4915998;29;20087;-60
2023/11/26 08:54:07;;;;;;;11.15;6.55;;;;;6.30;98549.00;;;;4916296;29;20493;-61
2023/11/26 08:56:33;;;;;;;9.38;6.53;;;;;6.20;98554.00;;;;4916973;29;20071;-61
2023/11/26 08:59:00;;;;;;;11.75;7.00;;;;;6.20;98556.00;;;;4915580;29;20052;-64
2023/11/26 09:01:26;;;;;;;10.13;6.95;;;;;6.10;98558.00;;;;4931473;29;20044;-62
2023/11/26 09:03:53;;;;;;;13.68;6.85;;;;;6.00;98558.00;;;;4914856;29;20051;-61
2023/11/26 09:06:20;;;;;;;12.80;7.45;;;;;6.00;98551.00;;;;4915721;29;20573;-62
2023/11/26 09:08:49;;;;;;;13.57;8.40;;;;;6.00;98554.00;;;;4916836;29;20420;-62
2023/11/26 09:11:17;;;;;;;11.27;7.57;;;;;6.10;98552.00;;;;4918132;29;20040;-62
2023/11/26 09:13:45;;;;;;;17.17;12.88;;;;;6.10;98549.00;;;;4917438;29;20094;-62
2023/11/26 09:16:12;;;;;;;13.10;8.70;;;;;6.20;98557.00;;;;4917433;29;20074;-62
2023/11/26 09:18:39;;;;;;;13.27;8.90;;;;;6.30;98553.00;;;;4916521;29;20040;-61
2023/11/26 09:21:06;;;;;;;14.82;8.75;;;;;6.30;98562.00;;;;4932156;29;20048;-62
2023/11/26 09:23:34;;;;;;;11.70;7.07;;;;;6.30;98555.00;;;;4916489;29;20048;-62
2023/11/26 09:26:02;;;;;;;12.85;8.95;;;;;6.40;98560.00;;;;4918249;29;20052;-63
2023/11/26 09:28:30;;;;;;;15.73;7.90;;;;;6.40;98562.00;;;;4918572;29;20103;-62
2023/11/26 09:30:56;;;;;;;18.73;8.88;;;;;6.50;98565.00;;;;4921282;29;20056;-61
2023/11/26 09:33:24;;;;;;;12.55;7.88;;;;;6.50;98567.00;;;;4920677;29;20052;-64
2023/11/26 09:35:51;;;;;;;19.42;9.07;;;;;6.60;98558.00;;;;4919676;29;20055;-62
2023/11/26 09:38:18;;;;;;;12.45;7.32;;;;;6.70;98556.00;;;;4919897;29;20044;-61
2023/11/26 09:40:44;;;;;;;13.98;9.65;;;;;6.80;98562.00;;;;4918089;29;20056;-62
2023/11/26 09:43:13;;;;;;;14.57;7.75;;;;;6.90;98561.00;;;;4918282;29;20046;-64
2023/11/26 09:45:39;;;;;;;29.25;10.55;;;;;7.00;98561.00;;;;4915551;29;20048;-62
2023/11/26 09:48:09;;;;;;;12.68;7.53;;;;;7.10;98554.00;;;;4899631;29;20059;-62
2023/11/26 09:50:35;;;;;;;11.15;6.97;;;;;7.20;98568.00;;;;4915460;29;20054;-62
2023/11/26 09:53:03;;;;;;;14.02;6.90;;;;;7.30;98558.00;;;;4915933;29;20054;-61
2023/11/26 09:55:49;;;;;;;11.95;6.43;;;;;7.40;98560.00;;;;4929993;29;20569;-64
2023/11/26 09:58:16;;;;;;;19.33;7.20;;;;;7.50;98560.00;;;;4914475;29;20502;-63
2023/11/26 10:00:42;;;;;;;8.57;6.22;;;;;7.50;98550.00;;;;4916183;29;20395;-61
2023/11/26 10:03:09;;;;;;;12.18;6.43;;;;;7.60;98553.00;;;;4915974;29;20134;-61
2023/11/26 10:05:36;;;;;;;10.23;6.55;;;;;7.70;98551.00;;;;4914079;29;20048;-62
2023/11/26 10:08:03;;;;;;;9.45;6.32;;;;;7.70;98549.00;;;;4930459;29;20040;-61
2023/11/26 10:10:30;;;;;;;9.90;6.47;;;;;7.80;98548.00;;;;4915990;29;20497;-60
2023/11/26 10:12:59;;;;;;;12.15;7.15;;;;;7.90;98539.00;;;;4916036;29;20078;-61
2023/11/26 10:15:31;;;;;;;11.13;6.80;;;;;7.80;98547.00;;;;4915307;29;20080;-63
2023/11/26 10:18:09;;;;;;;12.75;7.03;;;;;7.80;98540.00;;;;4915093;29;20732;-61
2023/11/26 10:20:40;;;;;;;12.77;7.53;;;;;7.70;98529.00;;;;4914837;29;20060;-61
2023/11/26 10:23:08;;;;;;;10.20;7.00;;;;;7.60;98529.00;;;;4899109;29;20517;-64
2023/11/26 10:25:40;;;;;;;16.60;7.88;;;;;7.60;98529.00;;;;4898442;29;20522;-64
2023/11/26 10:28:13;;;;;;;14.10;7.85;;;;;7.60;98534.00;;;;4914592;29;20071;-64
2023/11/26 10:30:40;;;;;;;12.17;8.27;;;;;7.60;98537.00;;;;4916160;29;20131;-64
2023/11/26 10:33:08;;;;;;;11.13;6.95;;;;;7.50;98529.00;;;;4915997;29;20295;-64
2023/11/26 10:35:52;;;;;;;12.40;9.30;;;;;7.50;98525.00;;;;4915522;29;20051;-64
2023/11/26 10:38:25;;;;;;;15.35;10.57;;;;;7.40;98521.00;;;;4915955;29;20063;-62
2023/11/26 10:40:55;;;;;;;15.38;9.18;;;;;7.40;98516.00;;;;4914846;29;20059;-62
2023/11/26 10:43:22;;;;;;;14.27;7.45;;;;;7.50;98514.00;;;;4915949;29;20118;-64
2023/11/26 10:45:50;;;;;;;26.55;22.83;;;;;7.40;98511.00;;;;4915159;29;20413;-62
2023/11/26 10:48:18;;;;;;;12.68;8.23;;;;;7.40;98507.00;;;;4915453;29;20049;-64
2023/11/26 10:51:05;;;;;;;13.40;8.55;;;;;7.50;98508.00;;;;4915395;29;20441;-62
2023/11/26 10:53:55;;;;;;;11.82;6.55;;;;;7.50;98504.00;;;;4915887;29;20127;-62
2023/11/26 10:56:28;;;;;;;11.38;6.57;;;;;7.50;98509.00;;;;4915930;29;20399;-64
2023/11/26 10:58:58;;;;;;;9.80;5.90;;;;;7.50;98514.00;;;;4916649;29;20051;-61
2023/11/26 11:01:25;;;;;;;12.55;6.65;;;;;7.40;98516.00;;;;4916376;29;20056;-63
2023/11/26 11:03:54;;;;;;;18.20;8.65;;;;;7.40;98511.00;;;;4914266;29;20395;-63
2023/11/26 11:06:23;;;;;;;12.30;7.13;;;;;7.40;98514.00;;;;4916201;29;20494;-63
2023/11/26 11:08:51;;;;;;;12.48;8.05;;;;;7.40;98511.00;;;;4918051;29;20075;-63
2023/11/26 11:11:35;;;;;;;11.52;8.80;;;;;7.40;98513.00;;;;4919437;29;20095;-61
2023/11/26 11:14:03;;;;;;;11.60;7.68;;;;;7.30;98500.00;;;;4919364;29;20052;-61
2023/11/26 11:16:30;;;;;;;16.63;8.70;;;;;7.20;98504.00;;;;4919025;29;20048;-61
2023/11/26 11:18:57;;;;;;;15.02;7.43;;;;;7.30;98496.00;;;;4918327;29;20050;-63
2023/11/26 11:21:24;;;;;;;13.85;7.63;;;;;7.30;98491.00;;;;4918346;29;20052;-61
2023/11/26 11:23:54;;;;;;;11.73;6.65;;;;;7.30;98491.00;;;;4918939;29;20044;-61
2023/11/26 11:26:22;;;;;;;11.18;7.10;;;;;7.30;98493.00;;;;4918250;29;20560;-62
2023/11/26 11:28:55;;;;;;;12.18;7.53;;;;;7.30;98494.00;;;;4919787;29;20072;-62
2023/11/26 11:31:51;;;;;;;12.38;7.22;;;;;7.20;98497.00;;;;4920730;29;20048;-62
2023/11/26 11:34:18;;;;;;;8.93;6.57;;;;;7.10;98490.00;;;;4919789;29;20059;-61
2023/11/26 11:36:49;;;;;;;11.85;6.82;;;;;7.10;98494.00;;;;4920052;29;20381;-61
2023/11/26 11:39:21;;;;;;;15.27;7.32;;;;;7.10;98495.00;;;;4919614;29;20072;-63
2023/11/26 11:42:00;;;;;;;16.92;7.95;;;;;7.10;98491.00;;;;4920155;29;20088;-61
2023/11/26 11:44:33;;;;;;;13.95;8.10;;;;;7.10;98498.00;;;;4918473;29;20072;-62
2023/11/26 11:47:05;;;;;;;11.98;7.07;;;;;7.20;98485.00;;;;4919947;29;20047;-63
2023/11/26 11:49:49;;;;;;;12.40;7.78;;;;;7.10;98484.00;;;;4919313;29;20143;-63
2023/11/26 11:52:16;;;;;;;12.13;6.45;;;;;7.10;98492.00;;;;4920448;29;20100;-62
2023/11/26 11:55:29;;;;;;;11.20;6.93;;;;;7.10;98491.00;;;;4918478;29;20076;-63
2023/11/26 11:57:55;;;;;;;17.05;9.45;;;;;7.10;98477.00;;;;4935630;29;20058;-63
2023/11/26 12:00:22;;;;;;;20.75;10.50;;;;;7.10;98486.00;;;;4936102;29;20525;-62
2023/11/26 12:02:49;;;;;;;15.13;8.80;;;;;7.10;98477.00;;;;4926942;29;20089;-65
2023/11/26 12:05:24;;;;;;;13.32;7.90;;;;;7.10;98480.00;;;;4916907;29;20150;-63
2023/11/26 12:07:52;;;;;;;17.27;11.98;;;;;7.20;98485.00;;;;4918904;29;20101;-63
2023/11/26 12:10:26;;;;;;;29.80;17.10;;;;;7.20;98485.00;;;;4918994;29;20144;-62
2023/11/26 12:13:19;;;;;;;26.52;14.98;;;;;7.30;98485.00;;;;4917569;29;20151;-63
2023/11/26 12:15:55;;;;;;;14.07;9.25;;;;;7.20;98485.00;;;;4918231;29;20123;-63
2023/11/26 12:18:22;;;;;;;12.82;8.55;;;;;7.30;98474.00;;;;4918847;29;20513;-63
2023/11/26 12:20:49;;;;;;;13.25;8.32;;;;;7.30;98467.00;;;;4918013;29;20432;-62
2023/11/26 12:23:29;;;;;;;16.23;8.98;;;;;7.30;98473.00;;;;4919432;29;20131;-63
2023/11/26 12:25:58;;;;;;;14.15;8.88;;;;;7.30;98467.00;;;;4918631;29;20060;-63
2023/11/26 12:28:25;;;;;;;17.02;9.13;;;;;7.30;98473.00;;;;4918514;29;20119;-62
2023/11/26 12:30:55;;;;;;;15.35;10.40;;;;;7.30;98469.00;;;;4918535;29;20052;-63